Peotone Weather
Station Historical Data
 
Daily Summary for March 30, 2015 Units:  English    Metric   Both
« Previous Day
Next Day »
Daily Weekly Monthly Yearly Custom
  Current: High: Low: Average:
Temperature: 34.7 °F 39.6 °F 34.7 °F 37 °F
Dew Point: 30.1 °F 34.5 °F 30.1 °F 32.2 °F
Humidity: 83% 84% 81% 83%
Wind Speed: 4.6mph 6.9mph 1.1mph 4.2mph
Wind Gust: 4.6mph 8.1mph - -
WindWest - - West
Pressure: 30.02 in 30.02 in 29.99 in -
Precipitation: 0.00 in      
Historical Graphs
 
 
Tabular Data for March 30, 2015
Time Temperature Dew Point Pressure Wind Wind Speed Wind Gust Humidity Rainfall Rate (Hourly) solar Conditions
00:01 38.9 °F 34.2 °F 29.99 in West 4.6 mph 8.1 mph 83% 0.00 in 0.00 W/m2
00:06 39.0 °F 34.0 °F 29.99 in West 4.6 mph 6.9 mph 82% 0.00 in 0.00 W/m2
00:11 39.2 °F 34.2 °F 29.99 in West 4.6 mph 8.1 mph 82% 0.00 in 0.00 W/m2
00:16 39.5 °F 34.5 °F 29.99 in West 5.8 mph 8.1 mph 82% 0.00 in 0.00 W/m2
00:22 39.6 °F 34.3 °F 29.99 in West 4.6 mph 6.9 mph 81% 0.00 in 0.00 W/m2
00:27 39.5 °F 34.2 °F 29.99 in West 3.4 mph 5.8 mph 81% 0.00 in 0.00 W/m2
00:32 39.2 °F 33.9 °F 29.99 in WNW 5.8 mph 5.8 mph 81% 0.00 in 0.00 W/m2
00:37 39.0 °F 33.7 °F 29.99 in WNW 4.6 mph 6.9 mph 81% 0.00 in 0.00 W/m2
00:42 39.0 °F 33.7 °F 30.00 in West 5.8 mph 8.1 mph 81% 0.00 in 0.00 W/m2
00:47 38.8 °F 33.5 °F 30.00 in West 3.4 mph 6.9 mph 81% 0.00 in 0.00 W/m2
00:52 38.6 °F 33.3 °F 30.00 in West 4.6 mph 4.6 mph 81% 0.00 in 0.00 W/m2
00:57 38.4 °F 33.4 °F 30.00 in West 5.8 mph 5.8 mph 82% 0.00 in 0.00 W/m2
01:03 38.2 °F 33.2 °F 30.00 in WNW 3.4 mph 5.8 mph 82% 0.00 in 0.00 W/m2
01:08 38.0 °F 33.0 °F 30.00 in WNW 4.6 mph 6.9 mph 82% 0.00 in 0.00 W/m2
01:13 37.9 °F 32.9 °F 30.00 in WNW 3.4 mph 5.8 mph 82% 0.00 in 0.00 W/m2
01:18 37.9 °F 32.9 °F 30.00 in WNW 4.6 mph 5.8 mph 82% 0.00 in 0.00 W/m2
01:23 37.8 °F 32.8 °F 30.00 in WNW 3.4 mph 4.6 mph 82% 0.00 in 0.00 W/m2
01:28 37.5 °F 32.5 °F 30.00 in WNW 3.4 mph 4.6 mph 82% 0.00 in 0.00 W/m2
01:33 37.4 °F 32.7 °F 30.00 in WNW 3.4 mph 4.6 mph 83% 0.00 in 0.00 W/m2
01:38 37.2 °F 32.5 °F 30.00 in WNW 3.4 mph 5.8 mph 83% 0.00 in 0.00 W/m2
01:44 37.2 °F 32.5 °F 30.00 in WNW 2.3 mph 4.6 mph 83% 0.00 in 0.00 W/m2
01:49 37.3 °F 32.6 °F 30.01 in WNW 2.3 mph 4.6 mph 83% 0.00 in 0.00 W/m2
01:54 37.2 °F 32.5 °F 30.01 in WNW 3.4 mph 4.6 mph 83% 0.00 in 0.00 W/m2
01:59 37.0 °F 32.3 °F 30.01 in WNW 2.3 mph 4.6 mph 83% 0.00 in 0.00 W/m2
02:04 36.8 °F 32.1 °F 30.01 in WNW 4.6 mph 5.8 mph 83% 0.00 in 0.00 W/m2
02:09 36.6 °F 31.9 °F 30.01 in West 3.4 mph 8.1 mph 83% 0.00 in 0.00 W/m2
02:14 36.5 °F 32.1 °F 30.01 in West 1.1 mph 4.6 mph 84% 0.00 in 0.00 W/m2
02:19 36.3 °F 31.9 °F 30.01 in West 5.8 mph 5.8 mph 84% 0.00 in 0.00 W/m2
02:25 36.3 °F 31.9 °F 30.01 in West 4.6 mph 5.8 mph 84% 0.00 in 0.00 W/m2
02:30 36.3 °F 31.9 °F 30.01 in West 4.6 mph 8.1 mph 84% 0.00 in 0.00 W/m2
02:35 36.4 °F 31.7 °F 30.01 in West 3.4 mph 6.9 mph 83% 0.00 in 0.00 W/m2
02:40 36.4 °F 31.7 °F 30.01 in West 4.6 mph 6.9 mph 83% 0.00 in 0.00 W/m2
02:45 36.2 °F 31.5 °F 30.01 in West 4.6 mph 6.9 mph 83% 0.00 in 0.00 W/m2
02:50 36.1 °F 31.5 °F 30.01 in West 3.4 mph 6.9 mph 83% 0.00 in 0.00 W/m2
02:55 36.1 °F 31.5 °F 30.01 in West 4.6 mph 6.9 mph 83% 0.00 in 0.00 W/m2
03:00 36.0 °F 31.4 °F 30.01 in West 6.9 mph 6.9 mph 83% 0.00 in 0.00 W/m2
03:05 35.9 °F 31.2 °F 30.01 in West 4.6 mph 6.9 mph 83% 0.00 in 0.00 W/m2
03:10 35.9 °F 31.2 °F 30.01 in West 3.4 mph 5.8 mph 83% 0.00 in 0.00 W/m2
03:16 35.6 °F 31.0 °F 30.01 in West 3.4 mph 5.8 mph 83% 0.00 in 0.00 W/m2
03:21 35.6 °F 31.0 °F 30.01 in West 5.8 mph 5.8 mph 83% 0.00 in 0.00 W/m2
03:26 35.6 °F 31.0 °F 30.01 in West 2.3 mph 6.9 mph 83% 0.00 in 0.00 W/m2
03:31 35.6 °F 31.0 °F 30.01 in West 4.6 mph 8.1 mph 83% 0.00 in 0.00 W/m2
03:36 35.5 °F 30.9 °F 30.01 in West 5.8 mph 6.9 mph 83% 0.00 in 0.00 W/m2
03:41 35.5 °F 30.9 °F 30.01 in West 5.8 mph 6.9 mph 83% 0.00 in 0.00 W/m2
03:46 35.4 °F 30.8 °F 30.01 in West 3.4 mph 5.8 mph 83% 0.00 in 0.00 W/m2
03:51 35.3 °F 30.7 °F 30.01 in West 4.6 mph 8.1 mph 83% 0.00 in 0.00 W/m2
03:56 35.3 °F 30.7 °F 30.01 in West 1.1 mph 3.4 mph 83% 0.00 in 0.00 W/m2
04:02 35.2 °F 30.6 °F 30.02 in West 4.6 mph 6.9 mph 83% 0.00 in 0.00 W/m2
04:07 35.0 °F 30.4 °F 30.02 in West 5.8 mph 6.9 mph 83% 0.00 in 0.00 W/m2
04:12 34.8 °F 30.2 °F 30.02 in West 3.4 mph 4.6 mph 83% 0.00 in 0.00 W/m2
04:17 34.7 °F 30.1 °F 30.02 in West 4.6 mph 4.6 mph 83% 0.00 in 0.00 W/m2
Peotone Weather Data
Compliments of Weather Underground